createdAt,value
2018-08-19T00:03:19.410Z,98099.54
2018-08-19T00:05:48.709Z,98098.95
2018-08-19T00:08:18.074Z,98093.09
2018-08-19T00:10:59.585Z,98097.61
2018-08-19T00:13:28.630Z,98090.13
2018-08-19T00:15:57.706Z,98093.39
2018-08-19T00:18:26.822Z,98092.91
2018-08-19T00:20:56.390Z,98093.16
2018-08-19T00:23:25.654Z,98099.91
2018-08-19T00:25:54.574Z,98101.25
2018-08-19T00:28:23.782Z,98099.41
2018-08-19T00:30:53.040Z,98105.92
2018-08-19T00:33:22.321Z,98111.86
2018-08-19T00:35:51.228Z,98101.80
2018-08-19T00:38:20.382Z,98100.31
2018-08-19T00:40:49.399Z,98106.23
2018-08-19T00:43:18.617Z,98094.53
2018-08-19T00:45:47.830Z,98091.63
2018-08-19T00:48:16.655Z,98096.50
2018-08-19T00:50:45.834Z,98094.77
2018-08-19T00:53:14.666Z,98096.69
2018-08-19T00:55:48.806Z,98095.36
2018-08-19T00:58:19.119Z,98095.36
2018-08-19T01:00:48.144Z,98086.96
2018-08-19T01:03:17.226Z,98085.86
2018-08-19T01:05:46.321Z,98092.96
2018-08-19T01:08:15.929Z,98088.72
2018-08-19T01:10:45.120Z,98092.94
2018-08-19T01:13:14.553Z,98092.55
2018-08-19T01:15:43.634Z,98097.08
2018-08-19T01:18:12.805Z,98103.75
2018-08-19T01:20:41.951Z,98100.32
2018-08-19T01:23:10.908Z,98102.53
2018-08-19T01:25:40.091Z,98102.76
2018-08-19T01:28:09.103Z,98101.03
2018-08-19T01:30:38.244Z,98098.13
2018-08-19T01:33:07.518Z,98100.16
2018-08-19T01:35:40.474Z,98096.77
2018-08-19T01:38:09.588Z,98098.56
2018-08-19T01:40:38.615Z,98096.31
2018-08-19T01:43:08.254Z,98096.02
2018-08-19T01:45:37.393Z,98097.05
2018-08-19T01:48:06.409Z,98092.88
2018-08-19T01:50:35.858Z,98088.83
2018-08-19T01:53:05.067Z,98092.02
2018-08-19T01:55:34.079Z,98095.56
2018-08-19T01:58:03.252Z,98092.42
2018-08-19T02:00:32.351Z,98090.39
2018-08-19T02:03:05.694Z,98088.82
2018-08-19T02:05:34.878Z,98087.44
2018-08-19T02:08:04.935Z,98088.90
2018-08-19T02:10:35.221Z,98084.89
2018-08-19T02:13:04.387Z,98090.87
2018-08-19T02:15:33.942Z,98085.52
2018-08-19T02:18:06.410Z,98085.58
2018-08-19T02:20:38.687Z,98089.52
2018-08-19T02:23:10.236Z,98086.38
2018-08-19T02:25:47.601Z,98082.22
2018-08-19T02:28:21.254Z,98086.16
2018-08-19T02:30:55.662Z,98084.08
2018-08-19T02:33:24.646Z,98087.33
2018-08-19T02:36:00.706Z,98089.63
2018-08-19T02:38:30.128Z,98086.22
2018-08-19T02:40:59.235Z,98084.02
2018-08-19T02:43:28.497Z,98083.55
2018-08-19T02:45:57.722Z,98083.08
2018-08-19T02:48:45.615Z,98086.22
2018-08-19T02:51:15.753Z,98087.02
2018-08-19T02:53:45.954Z,98090.27
2018-08-19T02:56:15.733Z,98088.19
2018-08-19T02:58:45.666Z,98092.30
2018-08-19T03:01:15.994Z,98091.44
2018-08-19T03:03:44.963Z,98091.30
2018-08-19T03:06:14.052Z,98102.96
2018-08-19T03:08:48.590Z,98106.38
2018-08-19T03:11:19.990Z,98106.32
2018-08-19T03:13:49.461Z,98106.91
2018-08-19T03:16:18.589Z,98110.42
2018-08-19T03:18:49.778Z,98110.65
2018-08-19T03:21:19.750Z,98111.70
2018-08-19T03:23:51.495Z,98110.84
2018-08-19T03:26:20.753Z,98109.03
2018-08-19T03:28:49.890Z,98105.84
2018-08-19T03:31:18.637Z,98110.81
2018-08-19T03:33:47.625Z,98109.61
2018-08-19T03:36:16.534Z,98109.84
2018-08-19T03:38:45.687Z,98108.09
2018-08-19T03:41:14.958Z,98113.47
2018-08-19T03:43:48.966Z,98114.91
2018-08-19T03:46:21.502Z,98109.98
2018-08-19T03:48:50.780Z,98109.34
2018-08-19T03:51:19.530Z,98112.77
2018-08-19T03:53:48.630Z,98110.55
2018-08-19T03:56:22.826Z,98117.09
2018-08-19T03:58:53.364Z,98115.91
2018-08-19T04:01:32.978Z,98120.77
2018-08-19T04:04:02.042Z,98126.31
2018-08-19T04:06:31.275Z,98128.33
2018-08-19T04:09:00.334Z,98128.80
2018-08-19T04:11:29.441Z,98134.02
2018-08-19T04:13:58.474Z,98134.67
2018-08-19T04:16:27.520Z,98137.97
2018-08-19T04:19:07.857Z,98139.84
2018-08-19T04:21:36.707Z,98146.57
2018-08-19T04:24:05.914Z,98145.66
2018-08-19T04:26:35.051Z,98138.48
2018-08-19T04:29:10.678Z,98147.16
2018-08-19T04:31:39.564Z,98149.72
2018-08-19T04:34:08.781Z,98151.58
2018-08-19T04:36:37.895Z,98147.39
2018-08-19T04:39:07.017Z,98142.71
2018-08-19T04:41:36.091Z,98152.55
2018-08-19T04:44:05.354Z,98152.23
2018-08-19T04:46:34.455Z,98155.20
2018-08-19T04:49:03.520Z,98151.66
2018-08-19T04:51:32.610Z,98157.28
2018-08-19T04:54:04.975Z,98155.98
2018-08-19T04:56:34.227Z,98159.06
2018-08-19T04:59:03.407Z,98158.23
2018-08-19T05:01:32.720Z,98159.30
2018-08-19T05:04:01.562Z,98155.87
2018-08-19T05:06:30.527Z,98155.05
2018-08-19T05:08:59.809Z,98163.72
2018-08-19T05:11:29.039Z,98166.93
2018-08-19T05:13:59.759Z,98171.48
2018-08-19T05:16:28.618Z,98169.33
2018-08-19T05:19:02.529Z,98169.59
2018-08-19T05:21:31.910Z,98163.16
2018-08-19T05:24:01.124Z,98168.28
2018-08-19T05:26:29.878Z,98165.95
2018-08-19T05:29:10.179Z,98166.81
2018-08-19T05:31:43.326Z,98168.28
2018-08-19T05:34:18.657Z,98172.18
2018-08-19T05:36:50.759Z,98172.54
2018-08-19T05:39:19.846Z,98167.33
2018-08-19T05:42:01.850Z,98169.79
2018-08-19T05:44:34.820Z,98170.75
2018-08-19T05:47:06.776Z,98176.94
2018-08-19T05:49:38.196Z,98178.28
2018-08-19T05:52:12.387Z,98173.05
2018-08-19T05:54:46.473Z,98179.11
2018-08-19T05:57:16.362Z,98181.18
2018-08-19T05:59:46.398Z,98172.88
2018-08-19T06:02:15.778Z,98175.42
2018-08-19T06:04:45.110Z,98175.62
2018-08-19T06:07:14.301Z,98171.23
2018-08-19T06:09:43.190Z,98171.33
2018-08-19T06:12:12.454Z,98173.95
2018-08-19T06:14:41.418Z,98174.39
2018-08-19T06:17:10.270Z,98177.27
2018-08-19T06:19:39.487Z,98178.58
2018-08-19T06:22:08.738Z,98186.86
2018-08-19T06:24:37.969Z,98181.89
2018-08-19T06:27:07.140Z,98185.44
2018-08-19T06:29:46.020Z,98191.26
2018-08-19T06:32:22.251Z,98187.52
2018-08-19T06:34:52.531Z,98191.34
2018-08-19T06:37:22.267Z,98195.27
2018-08-19T06:39:52.404Z,98197.88
2018-08-19T06:42:22.376Z,98195.88
2018-08-19T06:44:51.782Z,98200.69
2018-08-19T06:47:20.884Z,98196.54
2018-08-19T06:49:52.921Z,98189.05
2018-08-19T06:52:22.755Z,98195.59
2018-08-19T06:54:51.701Z,98196.98
2018-08-19T06:57:21.039Z,98199.47
2018-08-19T06:59:50.260Z,98187.52
2018-08-19T07:02:21.558Z,98189.98
2018-08-19T07:04:50.790Z,98187.16
2018-08-19T07:07:20.471Z,98193.94
2018-08-19T07:09:49.609Z,98190.89
2018-08-19T07:12:22.628Z,98186.52
2018-08-19T07:14:51.927Z,98193.68
2018-08-19T07:17:22.004Z,98192.13
2018-08-19T07:19:51.147Z,98190.94
2018-08-19T07:22:21.517Z,98193.27
2018-08-19T07:24:50.618Z,98192.41
2018-08-19T07:27:19.766Z,98193.24
2018-08-19T07:29:48.538Z,98194.52
2018-08-19T07:32:17.838Z,98191.45
2018-08-19T07:34:46.879Z,98190.92
2018-08-19T07:37:15.992Z,98191.62
2018-08-19T07:39:50.260Z,98193.72
2018-08-19T07:42:19.006Z,98195.58
2018-08-19T07:44:47.989Z,98199.78
2018-08-19T07:47:16.777Z,98196.70
2018-08-19T07:49:45.848Z,98192.23
2018-08-19T07:52:15.003Z,98193.91
2018-08-19T07:54:44.046Z,98196.03
2018-08-19T07:57:23.639Z,98200.81
2018-08-19T07:59:52.791Z,98198.05
2018-08-19T08:02:22.787Z,98205.28
2018-08-19T08:04:51.970Z,98193.59
2018-08-19T08:07:20.958Z,98195.55
2018-08-19T08:09:49.974Z,98186.13
2018-08-19T08:12:19.094Z,98186.41
2018-08-19T08:14:53.143Z,98187.34
2018-08-19T08:17:23.307Z,98187.71
2018-08-19T08:19:57.418Z,98186.92
2018-08-19T08:22:29.446Z,98190.58
2018-08-19T08:24:59.066Z,98188.64
2018-08-19T08:27:28.415Z,98185.76
2018-08-19T08:29:57.719Z,98188.08
2018-08-19T08:32:26.674Z,98187.44
2018-08-19T08:34:55.750Z,98180.91
2018-08-19T08:37:24.956Z,98179.61
2018-08-19T08:40:00.766Z,98186.78
2018-08-19T08:42:40.015Z,98184.80
2018-08-19T08:45:09.834Z,98181.98
2018-08-19T08:47:38.953Z,98185.67
2018-08-19T08:50:08.871Z,98186.33
2018-08-19T08:52:37.799Z,98185.30
2018-08-19T08:55:09.204Z,98184.81
2018-08-19T08:57:39.098Z,98183.70
2018-08-19T09:00:09.602Z,98178.11
2018-08-19T09:02:38.470Z,98184.06
2018-08-19T09:05:09.519Z,98179.77
2018-08-19T09:07:38.802Z,98182.41
2018-08-19T09:10:07.814Z,98180.77
2018-08-19T09:12:49.563Z,98179.23
2018-08-19T09:15:18.843Z,98183.04
2018-08-19T09:17:48.063Z,98176.97
2018-08-19T09:20:17.385Z,98174.77
2018-08-19T09:22:47.274Z,98172.41
2018-08-19T09:25:16.451Z,98168.98
2018-08-19T09:27:45.530Z,98166.98
2018-08-19T09:30:23.923Z,98170.95
2018-08-19T09:33:00.716Z,98158.85
2018-08-19T09:35:31.059Z,98163.39
2018-08-19T09:38:12.079Z,98166.75
2018-08-19T09:40:41.683Z,98165.58
2018-08-19T09:43:10.932Z,98162.13
2018-08-19T09:45:39.926Z,98161.95
2018-08-19T09:48:09.550Z,98165.48
2018-08-19T09:50:39.507Z,98161.51
2018-08-19T09:53:08.499Z,98159.19
2018-08-19T09:55:42.952Z,98162.91
2018-08-19T09:58:14.350Z,98160.48
2018-08-19T10:00:48.580Z,98163.63
2018-08-19T10:03:17.970Z,98156.63
2018-08-19T10:05:47.283Z,98161.03
2018-08-19T10:08:16.555Z,98156.48
2018-08-19T10:10:45.736Z,98157.44
2018-08-19T10:13:16.179Z,98148.70
2018-08-19T10:15:45.342Z,98152.16
2018-08-19T10:18:14.199Z,98148.98
2018-08-19T10:20:43.191Z,98143.13
2018-08-19T10:23:12.331Z,98143.25
2018-08-19T10:25:41.231Z,98140.95
2018-08-19T10:28:10.426Z,98137.06
2018-08-19T10:30:46.453Z,98141.50
2018-08-19T10:33:15.726Z,98141.28
2018-08-19T10:35:44.595Z,98134.58
2018-08-19T10:38:15.862Z,98124.27
2018-08-19T10:40:52.454Z,98127.36
2018-08-19T10:43:21.847Z,98117.97
2018-08-19T10:45:50.938Z,98120.61
2018-08-19T10:48:19.967Z,98123.00
2018-08-19T10:50:49.215Z,98114.12
2018-08-19T10:53:23.386Z,98121.52
2018-08-19T10:55:52.602Z,98112.06
2018-08-19T10:58:21.721Z,98105.78
2018-08-19T11:00:52.088Z,98118.03
2018-08-19T11:03:21.556Z,98119.06
2018-08-19T11:05:52.151Z,98114.91
2018-08-19T11:08:21.200Z,98101.39
2018-08-19T11:10:50.442Z,98089.48
2018-08-19T11:13:20.909Z,98096.34
2018-08-19T11:15:53.085Z,98095.05
2018-08-19T11:18:25.531Z,98093.03
2018-08-19T11:20:58.361Z,98087.78
2018-08-19T11:23:28.215Z,98085.42
2018-08-19T11:25:57.975Z,98085.02
2018-08-19T11:28:34.427Z,98085.03
2018-08-19T11:31:03.348Z,98083.54
2018-08-19T11:33:38.126Z,98088.49
2018-08-19T11:36:07.373Z,98071.67
2018-08-19T11:38:36.720Z,98064.80
2018-08-19T11:41:07.020Z,98063.68
2018-08-19T11:43:38.938Z,98057.59
2018-08-19T11:46:08.576Z,98056.84
2018-08-19T11:48:38.130Z,98053.41
2018-08-19T11:51:06.975Z,98049.23
2018-08-19T11:53:36.324Z,98046.91
2018-08-19T11:56:05.377Z,98039.51
2018-08-19T11:58:40.098Z,98039.80
2018-08-19T12:01:13.753Z,98034.27
2018-08-19T12:04:00.711Z,98023.66
2018-08-19T12:06:31.085Z,98024.15
2018-08-19T12:09:02.624Z,98016.56
2018-08-19T12:11:33.074Z,98030.05
2018-08-19T12:14:04.339Z,98027.37
2018-08-19T12:16:41.291Z,98026.02
2018-08-19T12:19:15.426Z,98024.78
2018-08-19T12:21:49.622Z,98025.05
2018-08-19T12:24:25.641Z,98020.56
2018-08-19T12:26:56.324Z,98022.26
2018-08-19T12:29:27.268Z,98008.09
2018-08-19T12:32:02.482Z,98006.74
2018-08-19T12:34:32.135Z,98002.04
2018-08-19T12:37:01.274Z,98003.68
2018-08-19T12:39:30.430Z,98002.02
2018-08-19T12:41:59.749Z,97999.34
2018-08-19T12:44:29.226Z,98000.38
2018-08-19T12:47:06.930Z,97991.73
2018-08-19T12:49:40.973Z,97997.81
2018-08-19T12:52:11.461Z,97993.80
2018-08-19T12:54:40.262Z,97990.80
2018-08-19T12:57:09.418Z,97993.86
2018-08-19T12:59:38.618Z,97985.36
2018-08-19T13:02:07.789Z,97980.84
2018-08-19T13:04:36.799Z,97970.65
2018-08-19T13:07:11.270Z,97968.97
2018-08-19T13:09:40.547Z,97972.94
2018-08-19T13:12:11.030Z,97972.44
2018-08-19T13:14:40.283Z,97965.68
2018-08-19T13:17:09.259Z,97961.76
2018-08-19T13:19:38.401Z,97962.50
2018-08-19T13:22:07.174Z,97967.23
2018-08-19T13:24:37.263Z,97959.06
2018-08-19T13:27:06.832Z,97967.41
2018-08-19T13:29:36.703Z,97969.56
2018-08-19T13:32:05.960Z,97972.27
2018-08-19T13:34:35.045Z,97967.30
2018-08-19T13:37:04.202Z,97976.80
2018-08-19T13:39:33.554Z,97961.34
2018-08-19T13:42:02.642Z,97949.91
2018-08-19T13:44:31.751Z,97945.56
2018-08-19T13:47:00.707Z,97942.53
2018-08-19T13:49:30.091Z,97953.27
2018-08-19T13:52:02.247Z,97947.95
2018-08-19T13:54:31.123Z,97955.48
2018-08-19T13:57:00.294Z,97948.42
2018-08-19T13:59:29.097Z,97949.30
2018-08-19T14:01:58.238Z,97948.29
2018-08-19T14:04:27.553Z,97950.98
2018-08-19T14:06:56.919Z,97946.88
2018-08-19T14:09:25.768Z,97942.02
2018-08-19T14:11:54.729Z,97933.05
2018-08-19T14:14:23.751Z,97939.66
2018-08-19T14:16:52.997Z,97938.30
2018-08-19T14:19:22.039Z,97935.86
2018-08-19T14:21:51.231Z,97927.31
2018-08-19T14:24:20.371Z,97928.98
2018-08-19T14:26:49.487Z,97920.12
2018-08-19T14:29:18.170Z,97919.08
2018-08-19T14:31:47.287Z,97916.36
2018-08-19T14:34:16.484Z,97913.95
2018-08-19T14:36:45.825Z,97915.62
2018-08-19T14:39:15.074Z,97916.94
2018-08-19T14:41:44.352Z,97907.73
2018-08-19T14:44:13.507Z,97910.44
2018-08-19T14:46:42.583Z,97912.67
2018-08-19T14:49:11.542Z,97916.95
2018-08-19T14:52:01.659Z,97913.72
2018-08-19T14:54:30.758Z,97909.20
2018-08-19T14:57:00.159Z,97913.84
2018-08-19T14:59:29.226Z,97911.61
2018-08-19T15:01:58.558Z,97906.73
2018-08-19T15:04:27.490Z,97903.30
2018-08-19T15:06:57.280Z,97907.23
2018-08-19T15:09:35.597Z,97909.77
2018-08-19T15:12:11.609Z,97910.48
2018-08-19T15:14:40.812Z,97904.03
2018-08-19T15:17:10.908Z,97900.97
2018-08-19T15:19:45.971Z,97900.59
2018-08-19T15:22:15.366Z,97901.58
2018-08-19T15:24:44.250Z,97900.89
2018-08-19T15:27:13.169Z,97900.33
2018-08-19T15:29:43.954Z,97902.02
2018-08-19T15:32:13.397Z,97899.84
2018-08-19T15:34:42.276Z,97905.77
2018-08-19T15:37:11.403Z,97896.64
2018-08-19T15:39:40.757Z,97899.98
2018-08-19T15:42:10.035Z,97901.22
2018-08-19T15:44:39.279Z,97918.38
2018-08-19T15:47:08.179Z,97945.38
2018-08-19T15:49:37.250Z,97939.27
2018-08-19T15:52:06.417Z,97936.19
2018-08-19T15:54:35.279Z,97952.69
2018-08-19T15:57:04.834Z,97958.77
2018-08-19T15:59:37.646Z,97960.45
2018-08-19T16:02:06.767Z,97955.09
2018-08-19T16:04:36.051Z,97958.86
2018-08-19T16:07:05.202Z,97960.90
2018-08-19T16:09:34.454Z,97969.37
2018-08-19T16:12:03.793Z,97959.74
2018-08-19T16:14:33.354Z,97947.81
2018-08-19T16:17:03.306Z,97952.45
2018-08-19T16:19:32.107Z,97958.00
2018-08-19T16:22:01.309Z,97953.95
2018-08-19T16:24:30.288Z,97949.23
2018-08-19T16:26:59.336Z,97938.52
2018-08-19T16:29:28.666Z,97940.89
2018-08-19T16:31:57.519Z,97941.95
2018-08-19T16:34:26.779Z,97941.02
2018-08-19T16:36:55.763Z,97929.98
2018-08-19T16:39:24.746Z,97932.36
2018-08-19T16:41:53.848Z,97924.23
2018-08-19T16:44:23.043Z,97926.91
2018-08-19T16:46:51.728Z,97924.08
2018-08-19T16:49:20.815Z,97928.23
2018-08-19T16:51:50.038Z,97928.02
2018-08-19T16:54:18.804Z,97927.75
2018-08-19T16:56:47.643Z,97924.83
2018-08-19T16:59:16.843Z,97931.36
2018-08-19T17:01:45.959Z,97932.66
2018-08-19T17:04:14.950Z,97929.03
2018-08-19T17:06:43.794Z,97931.18
2018-08-19T17:09:12.925Z,97935.34
2018-08-19T17:11:42.157Z,97939.27
2018-08-19T17:14:11.306Z,97937.52
2018-08-19T17:16:40.670Z,97935.63
2018-08-19T17:19:09.697Z,97943.84
2018-08-19T17:21:38.943Z,97935.79
2018-08-19T17:24:08.088Z,97941.63
2018-08-19T17:26:37.419Z,97939.00
2018-08-19T17:29:11.383Z,97937.44
2018-08-19T17:31:40.515Z,97941.38
2018-08-19T17:34:21.518Z,97940.41
2018-08-19T17:36:50.377Z,97946.00
2018-08-19T17:39:22.051Z,97942.59
2018-08-19T17:41:52.494Z,97944.84
2018-08-19T17:44:22.231Z,97947.20
2018-08-19T17:46:54.182Z,97944.52
2018-08-19T17:49:28.206Z,97950.00
2018-08-19T17:51:58.998Z,97946.65
2018-08-19T17:54:29.224Z,97951.77
2018-08-19T17:56:59.820Z,97963.25
2018-08-19T17:59:29.118Z,97965.44
2018-08-19T18:01:57.828Z,97976.55
2018-08-19T18:04:48.267Z,97985.57
2018-08-19T18:07:20.867Z,97988.64
2018-08-19T18:09:55.076Z,97990.45
2018-08-19T18:12:24.211Z,97995.70
2018-08-19T18:14:53.201Z,98008.05
2018-08-19T18:17:22.358Z,98003.12
2018-08-19T18:19:51.863Z,98010.36
2018-08-19T18:22:21.979Z,98014.33
2018-08-19T18:24:56.170Z,98010.73
2018-08-19T18:27:25.379Z,98016.98
2018-08-19T18:29:54.913Z,98013.06
2018-08-19T18:32:24.738Z,98010.77
2018-08-19T18:34:54.320Z,98009.84
2018-08-19T18:37:23.511Z,98005.61
2018-08-19T18:39:52.752Z,98009.57
2018-08-19T18:42:34.754Z,98008.09
2018-08-19T18:45:08.947Z,98010.55
2018-08-19T18:47:47.804Z,98010.31
2018-08-19T18:50:17.071Z,98009.76
2018-08-19T18:52:46.331Z,98010.06
2018-08-19T18:55:15.680Z,98014.96
2018-08-19T18:57:55.261Z,98003.52
2018-08-19T19:00:26.094Z,98010.27
2018-08-19T19:02:59.454Z,98015.16
2018-08-19T19:05:32.958Z,98014.95
2018-08-19T19:08:08.045Z,98014.35
2018-08-19T19:10:37.724Z,98015.36
2018-08-19T19:13:07.163Z,98016.00
2018-08-19T19:15:40.316Z,98016.05
2018-08-19T19:18:12.230Z,98016.94
2018-08-19T19:21:14.668Z,98013.41
2018-08-19T19:23:44.877Z,98003.59
2018-08-19T19:26:14.174Z,98007.62
2018-08-19T19:28:43.267Z,98006.98
2018-08-19T19:31:15.178Z,98009.98
2018-08-19T19:33:44.481Z,98007.48
2018-08-19T19:36:18.704Z,98007.08
2018-08-19T19:38:53.045Z,98013.16
2018-08-19T19:41:28.523Z,98006.96
2018-08-19T19:43:57.760Z,98009.55
2018-08-19T19:46:26.804Z,98008.95
2018-08-19T19:48:56.079Z,98011.60
2018-08-19T19:51:25.327Z,98008.84
2018-08-19T19:53:54.405Z,98007.67
2018-08-19T19:56:23.249Z,98011.04
2018-08-19T19:58:52.300Z,98013.95
2018-08-19T20:01:21.916Z,98013.17
2018-08-19T20:03:56.027Z,98011.34
2018-08-19T20:06:25.611Z,98011.70
2018-08-19T20:08:55.006Z,98016.30
2018-08-19T20:11:30.227Z,98019.67
2018-08-19T20:14:01.114Z,98020.33
2018-08-19T20:16:30.318Z,98014.25
2018-08-19T20:18:59.489Z,98011.22
2018-08-19T20:21:29.692Z,98017.98
2018-08-19T20:23:59.647Z,98017.77
2018-08-19T20:26:28.558Z,98029.41
2018-08-19T20:28:59.843Z,98029.33
2018-08-19T20:31:29.052Z,98025.19
2018-08-19T20:33:58.440Z,98026.70
2018-08-19T20:36:27.661Z,98032.20
2018-08-19T20:38:56.743Z,98034.89
2018-08-19T20:41:25.957Z,98039.50
2018-08-19T20:43:55.162Z,98039.30
2018-08-19T20:46:24.423Z,98036.72
2018-08-19T20:48:53.619Z,98041.94
2018-08-19T20:51:22.816Z,98038.11
2018-08-19T20:53:52.045Z,98048.78
2018-08-19T20:56:21.294Z,98051.83
2018-08-19T20:58:50.449Z,98053.04
2018-08-19T21:01:24.527Z,98056.83
2018-08-19T21:03:53.623Z,98057.27
2018-08-19T21:06:22.778Z,98059.17
2018-08-19T21:08:51.876Z,98054.11
2018-08-19T21:11:20.660Z,98060.36
2018-08-19T21:13:49.507Z,98062.63
2018-08-19T21:16:18.755Z,98061.45
2018-08-19T21:18:47.788Z,98061.61
2018-08-19T21:21:16.726Z,98062.78
2018-08-19T21:23:45.974Z,98061.23
2018-08-19T21:26:14.819Z,98056.47
2018-08-19T21:28:48.890Z,98049.34
2018-08-19T21:31:18.190Z,98049.64
2018-08-19T21:33:47.333Z,98050.51
2018-08-19T21:36:16.679Z,98045.15
2018-08-19T21:38:45.779Z,98048.95
2018-08-19T21:41:14.787Z,98048.91
2018-08-19T21:43:43.618Z,98047.84
2018-08-19T21:46:12.914Z,98051.05
2018-08-19T21:48:42.142Z,98053.60
2018-08-19T21:51:11.178Z,98049.64
2018-08-19T21:53:40.034Z,98051.85
2018-08-19T21:56:08.783Z,98046.86
2018-08-19T21:58:37.720Z,98050.66
2018-08-19T22:01:12.081Z,98048.80
2018-08-19T22:03:46.298Z,98044.14
2018-08-19T22:06:15.415Z,98040.90
2018-08-19T22:08:44.739Z,98039.69
2018-08-19T22:11:13.487Z,98038.58
2018-08-19T22:13:42.742Z,98038.09
2018-08-19T22:16:11.626Z,98028.38
2018-08-19T22:18:40.884Z,98030.33
2018-08-19T22:21:17.737Z,98023.52
2018-08-19T22:23:47.797Z,98027.05
2018-08-19T22:26:17.879Z,98026.05
2018-08-19T22:28:51.387Z,98031.88
2018-08-19T22:31:25.598Z,98026.80
2018-08-19T22:33:56.158Z,98018.31
2018-08-19T22:36:25.021Z,98016.22
2018-08-19T22:38:54.774Z,98020.03
2018-08-19T22:41:25.226Z,98021.86
2018-08-19T22:43:55.054Z,98012.84
2018-08-19T22:46:24.665Z,98015.03
2018-08-19T22:48:54.610Z,98018.19
2018-08-19T22:51:23.685Z,98020.52
2018-08-19T22:53:54.606Z,98019.17
2018-08-19T22:56:24.017Z,98016.49
2018-08-19T22:58:53.288Z,98019.05
2018-08-19T23:01:22.814Z,98011.16
2018-08-19T23:03:58.919Z,98009.81
2018-08-19T23:06:28.351Z,98006.91
2018-08-19T23:08:57.548Z,98002.84
2018-08-19T23:11:35.267Z,97996.16
2018-08-19T23:14:15.637Z,97996.64
2018-08-19T23:16:44.764Z,97994.58
2018-08-19T23:19:13.903Z,97988.14
2018-08-19T23:21:43.122Z,97989.72
2018-08-19T23:24:12.286Z,97991.53
2018-08-19T23:26:41.470Z,97984.01
2018-08-19T23:29:10.743Z,97988.25
2018-08-19T23:31:39.534Z,97997.61
2018-08-19T23:34:08.386Z,97994.33
2018-08-19T23:36:37.416Z,97983.74
2018-08-19T23:39:08.562Z,97987.14
2018-08-19T23:41:37.826Z,97978.75
2018-08-19T23:44:07.091Z,97972.32
2018-08-19T23:46:36.562Z,97964.30
2018-08-19T23:49:05.679Z,97967.20
2018-08-19T23:51:34.633Z,97965.88
2018-08-19T23:54:04.322Z,97966.36
2018-08-19T23:56:33.255Z,97966.37
2018-08-19T23:59:02.715Z,97972.30
